Time;durP1;ratioP1;P1;durP2;ratioP2;P2;SDS_P1;SDS_P2;PMS_P1;PMS_P2;Temp;Humidity;BMP_temperature;BMP_pressure;BME280_temperature;BME280_humidity;BME280_pressure;Samples;Min_cycle;Max_cycle;Signal;HPM_P1;HPM_P2
2023/12/04 00:00:04;;;;;;;0.27;0.27;;;;;;;-11.01;100.00;96093.97;1030433;28;20538;-77
2023/12/04 00:00:35;;;;;;;0.38;0.38;;;;;;;-10.96;100.00;96101.22;1031511;28;20065;-76
2023/12/04 00:01:06;;;;;;;5.00;1.50;;;;;;;-10.97;100.00;96104.66;1030834;28;20546;-76
2023/12/04 00:01:45;;;;;;;0.50;0.50;;;;;;;-10.98;100.00;96100.53;1030418;28;20145;-75
2023/12/04 00:02:16;;;;;;;0.10;0.10;;;;;;;-11.04;100.00;96090.88;1036670;28;20037;-75
2023/12/04 00:02:46;;;;;;;1.50;1.50;;;;;;;-11.02;100.00;96105.03;1038806;28;20041;-76
2023/12/04 00:03:17;;;;;;;2.60;2.43;;;;;;;-11.01;100.00;96103.31;1026316;28;20086;-74
2023/12/04 00:03:47;;;;;;;2.07;1.43;;;;;;;-11.05;100.00;96096.88;1026776;28;20151;-76
2023/12/04 00:04:18;;;;;;;1.67;1.60;;;;;;;-11.05;100.00;96091.81;1030580;28;20096;-75
2023/12/04 00:04:48;;;;;;;1.30;1.30;;;;;;;-11.07;100.00;96089.38;1038874;28;20060;-76
2023/12/04 00:05:19;;;;;;;1.13;1.13;;;;;;;-11.09;100.00;96095.50;1039008;28;20036;-76
2023/12/04 00:05:50;;;;;;;0.77;0.77;;;;;;;-11.07;100.00;96096.19;1034359;28;20075;-75
2023/12/04 00:06:21;;;;;;;3.67;3.40;;;;;;;-11.09;100.00;96093.78;1026989;28;20035;-76
2023/12/04 00:06:51;;;;;;;1.63;1.30;;;;;;;-11.07;100.00;96088.56;1034957;28;20040;-76
2023/12/04 00:07:22;;;;;;;0.97;0.97;;;;;;;-11.09;100.00;96090.44;1034719;28;20054;-75
2023/12/04 00:07:52;;;;;;;1.33;1.33;;;;;;;-11.18;100.00;96079.28;1039464;28;20359;-76
2023/12/04 00:08:23;;;;;;;0.83;0.83;;;;;;;-11.10;100.00;96093.88;1034664;28;20516;-74
2023/12/04 00:08:53;;;;;;;0.50;0.50;;;;;;;-11.17;100.00;96086.75;1030736;28;20049;-76
2023/12/04 00:09:24;;;;;;;1.57;0.93;;;;;;;-11.16;100.00;96090.91;1034957;28;20032;-77
2023/12/04 00:09:55;;;;;;;2.83;2.17;;;;;;;-11.21;100.00;96079.53;1035113;28;20257;-75
2023/12/04 00:10:25;;;;;;;1.07;0.93;;;;;;;-11.23;100.00;96079.66;1034884;28;20046;-76
2023/12/04 00:10:56;;;;;;;1.80;1.70;;;;;;;-11.24;100.00;96082.31;1030475;28;20458;-75
2023/12/04 00:11:26;;;;;;;1.40;1.40;;;;;;;-11.22;100.00;96085.53;1026627;28;20038;-77
2023/12/04 00:11:57;;;;;;;1.50;1.40;;;;;;;-11.25;100.00;96084.03;1026406;28;20030;-75
2023/12/04 00:12:27;;;;;;;0.03;0.03;;;;;;;-11.25;100.00;96089.09;1026740;28;20498;-76
2023/12/04 00:12:58;;;;;;;1.57;1.33;;;;;;;-11.32;100.00;96070.25;1026558;28;20055;-74
2023/12/04 00:13:28;;;;;;;1.83;1.67;;;;;;;-11.27;100.00;96078.28;1027275;28;20031;-76
2023/12/04 00:14:02;;;;;;;2.28;2.17;;;;;;;-11.30;100.00;96078.53;1030994;28;20041;-75
2023/12/04 00:14:33;;;;;;;0.45;0.45;;;;;;;-11.30;100.00;96076.00;1035152;28;20025;-77
2023/12/04 00:15:04;;;;;;;2.73;2.00;;;;;;;-11.37;100.00;96069.78;1039268;28;20034;-76
2023/12/04 00:15:34;;;;;;;2.88;2.50;;;;;;;-11.31;100.00;96081.97;1038796;28;20145;-77
2023/12/04 00:16:05;;;;;;;0.87;0.87;;;;;;;-11.34;100.00;96082.22;1034847;28;20061;-77
2023/12/04 00:16:36;;;;;;;0.55;0.55;;;;;;;-11.34;100.00;96076.34;1030607;28;20030;-74
2023/12/04 00:17:06;;;;;;;1.83;0.50;;;;;;;-11.36;100.00;96073.16;1034866;28;20037;-76
2023/12/04 00:17:39;;;;;;;12.83;2.37;;;;;;;-11.37;100.00;96079.13;1033607;28;20045;-74
2023/12/04 00:18:10;;;;;;;0.93;0.93;;;;;;;-11.39;100.00;96074.19;1038319;28;20033;-75
2023/12/04 00:18:40;;;;;;;0.93;0.87;;;;;;;-11.40;100.00;96070.03;1035312;28;20033;-75
2023/12/04 00:19:11;;;;;;;2.97;2.37;;;;;;;-11.40;100.00;96072.56;1034747;28;20030;-76
2023/12/04 00:19:41;;;;;;;0.83;0.83;;;;;;;-11.42;100.00;96069.34;1034338;28;20420;-75
2023/12/04 00:20:12;;;;;;;1.63;1.53;;;;;;;-11.44;100.00;96069.47;1030813;28;20025;-75
2023/12/04 00:20:42;;;;;;;1.03;0.93;;;;;;;-11.48;100.00;96070.63;1030718;28;20023;-74
2023/12/04 00:21:13;;;;;;;1.30;1.27;;;;;;;-11.48;100.00;96065.56;1034679;28;20088;-75
2023/12/04 00:21:43;;;;;;;1.90;1.80;;;;;;;-11.49;100.00;96068.22;1030685;28;20030;-76
2023/12/04 00:22:14;;;;;;;0.27;0.27;;;;;;;-11.48;100.00;96074.88;1038091;28;20021;-76
2023/12/04 00:22:45;;;;;;;6.50;2.93;;;;;;;-11.47;100.00;96069.69;1030718;28;20502;-75
2023/12/04 00:23:15;;;;;;;0.40;0.40;;;;;;;-11.47;100.00;96076.47;1034844;28;20030;-76
2023/12/04 00:23:46;;;;;;;1.10;0.97;;;;;;;-11.51;100.00;96073.38;1034705;28;20561;-75
2023/12/04 00:24:16;;;;;;;0.83;0.83;;;;;;;-11.50;100.00;96071.66;1027078;28;20308;-75
2023/12/04 00:24:47;;;;;;;0.57;0.57;;;;;;;-11.51;100.00;96075.91;1030695;28;20093;-76
2023/12/04 00:25:17;;;;;;;0.50;0.50;;;;;;;-11.52;100.00;96071.00;1038704;28;20033;-75
2023/12/04 00:25:48;;;;;;;2.40;2.23;;;;;;;-11.57;100.00;96068.78;1039041;28;20470;-75
2023/12/04 00:26:18;;;;;;;1.70;1.60;;;;;;;-11.54;100.00;96077.88;1034701;28;20044;-75
2023/12/04 00:26:49;;;;;;;1.37;1.23;;;;;;;-11.53;100.00;96076.97;1026773;28;20117;-75
2023/12/04 00:27:20;;;;;;;1.27;1.27;;;;;;;-11.56;100.00;96077.22;1030486;28;20068;-74
2023/12/04 00:27:51;;;;;;;0.77;0.77;;;;;;;-11.56;100.00;96067.09;1038759;28;20026;-74
2023/12/04 00:28:21;;;;;;;1.77;0.77;;;;;;;-11.57;100.00;96073.84;1034590;28;20038;-76
2023/12/04 00:28:52;;;;;;;1.03;0.97;;;;;;;-11.58;100.00;96069.72;1026960;28;20027;-75
2023/12/04 00:29:22;;;;;;;6.37;1.70;;;;;;;-11.59;100.00;96080.78;1026772;28;20038;-75
2023/12/04 00:29:53;;;;;;;6.47;4.17;;;;;;;-11.59;100.00;96070.66;1031057;28;20094;-75
2023/12/04 00:30:23;;;;;;;0.43;0.43;;;;;;;-11.58;100.00;96076.50;1030561;28;20034;-75
2023/12/04 00:30:54;;;;;;;1.27;1.27;;;;;;;-11.61;100.00;96067.44;1034872;28;20088;-73
2023/12/04 00:31:25;;;;;;;0.93;0.90;;;;;;;-11.56;100.00;96077.22;1034634;28;20022;-76
2023/12/04 00:31:56;;;;;;;2.35;1.65;;;;;;;-11.59;100.00;96077.44;1034257;28;20030;-73
2023/12/04 00:32:27;;;;;;;0.20;0.20;;;;;;;-11.60;100.00;96073.28;1039137;28;20029;-75
2023/12/04 00:32:57;;;;;;;1.73;1.63;;;;;;;-11.60;100.00;96071.59;1037509;28;20021;-74
2023/12/04 00:33:28;;;;;;;0.73;0.73;;;;;;;-11.64;100.00;96071.00;1034765;28;20037;-76
2023/12/04 00:33:58;;;;;;;2.33;2.20;;;;;;;-11.67;100.00;96063.66;1038966;28;20075;-74
2023/12/04 00:34:29;;;;;;;6.57;3.33;;;;;;;-11.69;100.00;96060.44;1038568;28;20083;-75
2023/12/04 00:34:59;;;;;;;2.70;2.47;;;;;;;-11.65;100.00;96068.59;1039076;28;20075;-75
2023/12/04 00:35:30;;;;;;;1.10;1.10;;;;;;;-11.67;100.00;96071.25;1038596;28;20029;-74
2023/12/04 00:36:00;;;;;;;0.90;0.87;;;;;;;-11.69;100.00;96062.97;1034664;28;20541;-73
2023/12/04 00:36:31;;;;;;;2.33;2.17;;;;;;;-11.66;100.00;96072.06;1035299;28;20489;-74
2023/12/04 00:37:01;;;;;;;1.80;1.50;;;;;;;-11.66;100.00;96067.78;1038722;28;20029;-77
2023/12/04 00:37:32;;;;;;;1.00;0.97;;;;;;;-11.71;100.00;96062.25;1034587;28;20076;-76
2023/12/04 00:38:02;;;;;;;1.20;1.13;;;;;;;-11.67;100.00;96068.72;1034820;28;20097;-75
2023/12/04 00:38:33;;;;;;;1.67;1.40;;;;;;;-11.66;100.00;96060.19;1034743;28;20088;-75
2023/12/04 00:39:03;;;;;;;1.00;0.97;;;;;;;-11.68;100.00;96062.03;1039053;28;20048;-76
2023/12/04 00:39:34;;;;;;;0.47;0.47;;;;;;;-11.73;100.00;96061.59;1030418;28;20125;-75
2023/12/04 00:40:05;;;;;;;2.20;1.40;;;;;;;-11.70;100.00;96066.41;1030571;28;20034;-76
2023/12/04 00:40:36;;;;;;;1.80;1.70;;;;;;;-11.71;100.00;96062.25;1034864;28;20042;-74
2023/12/04 00:41:06;;;;;;;0.00;0.00;;;;;;;-11.73;100.00;96066.66;1034753;28;20034;-74
2023/12/04 00:41:37;;;;;;;1.23;1.13;;;;;;;-11.75;100.00;96063.44;1030876;28;20085;-74
2023/12/04 00:42:07;;;;;;;2.03;1.30;;;;;;;-11.75;100.00;96067.69;1034432;28;20479;-76
2023/12/04 00:42:38;;;;;;;1.43;0.73;;;;;;;-11.76;100.00;96061.81;1038830;28;20099;-74
2023/12/04 00:43:08;;;;;;;0.67;0.67;;;;;;;-11.77;100.00;96065.28;1038785;28;20056;-76
2023/12/04 00:43:39;;;;;;;0.40;0.40;;;;;;;-11.76;100.00;96066.88;1038772;28;20033;-75
2023/12/04 00:44:10;;;;;;;0.30;0.30;;;;;;;-11.76;100.00;96066.09;1034586;28;20048;-76
2023/12/04 00:44:40;;;;;;;2.80;1.30;;;;;;;-11.85;100.00;96054.97;1031017;28;20030;-74
2023/12/04 00:45:10;;;;;;;0.10;0.10;;;;;;;-11.80;100.00;96070.56;1042911;28;20530;-74
2023/12/04 00:45:41;;;;;;;1.10;1.10;;;;;;;-11.79;100.00;96072.19;1042825;28;20025;-74
2023/12/04 00:46:12;;;;;;;0.20;0.20;;;;;;;-11.82;100.00;96062.28;1043015;28;20500;-74
2023/12/04 00:46:42;;;;;;;2.83;1.60;;;;;;;-11.81;100.00;96061.34;1038641;28;20488;-75
2023/12/04 00:47:12;;;;;;;3.23;2.90;;;;;;;-11.87;100.00;96054.25;1034897;28;20030;-76
2023/12/04 00:47:43;;;;;;;2.30;1.77;;;;;;;-11.88;100.00;96061.03;1038715;28;20025;-75
2023/12/04 00:48:13;;;;;;;0.50;0.50;;;;;;;-11.84;100.00;96059.09;1040017;28;20048;-76
2023/12/04 00:48:46;;;;;;;1.53;1.43;;;;;;;-11.82;100.00;96069.06;1035756;28;20026;-77
2023/12/04 00:49:16;;;;;;;1.00;1.00;;;;;;;-11.91;100.00;96047.84;1031697;28;20518;-74
2023/12/04 00:49:46;;;;;;;1.13;1.03;;;;;;;-11.87;100.00;96051.72;1042830;28;20033;-76
2023/12/04 00:50:17;;;;;;;0.20;0.20;;;;;;;-11.83;100.00;96045.50;1030608;28;20038;-74
2023/12/04 00:50:48;;;;;;;1.50;0.83;;;;;;;-11.84;100.00;96048.97;1034705;28;20029;-76
2023/12/04 00:51:18;;;;;;;0.93;0.93;;;;;;;-11.87;100.00;96044.13;1032845;28;20555;-73
2023/12/04 00:51:49;;;;;;;0.30;0.30;;;;;;;-11.85;100.00;96044.03;1030479;28;20034;-73
2023/12/04 00:52:19;;;;;;;3.10;2.83;;;;;;;-11.89;100.00;96043.47;1025974;28;20387;-74
2023/12/04 00:52:50;;;;;;;0.40;0.40;;;;;;;-11.90;100.00;96041.88;1031147;28;20557;-75
2023/12/04 00:53:20;;;;;;;1.80;1.70;;;;;;;-11.91;100.00;96040.25;1030275;28;20026;-75
2023/12/04 00:53:50;;;;;;;2.57;1.50;;;;;;;-11.92;100.00;96041.16;1034531;28;20026;-74
2023/12/04 00:54:21;;;;;;;1.80;1.13;;;;;;;-11.93;100.00;96050.50;1030907;28;20022;-75
2023/12/04 00:54:51;;;;;;;1.20;1.20;;;;;;;-11.93;100.00;96044.63;1046769;28;20450;-75
2023/12/04 00:55:22;;;;;;;0.23;0.23;;;;;;;-12.02;100.00;96035.19;1038778;28;20025;-75
2023/12/04 00:55:52;;;;;;;0.17;0.17;;;;;;;-11.97;100.00;96045.75;1034725;28;20097;-75
2023/12/04 00:56:23;;;;;;;6.40;2.67;;;;;;;-11.97;100.00;96050.81;1030400;28;20040;-76
2023/12/04 00:56:53;;;;;;;1.10;1.10;;;;;;;-11.97;100.00;96045.75;1031056;28;20042;-76
2023/12/04 00:57:24;;;;;;;1.40;1.40;;;;;;;-12.12;100.00;96023.25;1034538;28;20018;-77
2023/12/04 00:57:54;;;;;;;1.03;1.00;;;;;;;-12.03;100.00;96043.72;1038861;28;20492;-75
2023/12/04 00:58:25;;;;;;;2.80;0.57;;;;;;;-12.00;100.00;96051.88;1041499;28;20040;-76
2023/12/04 00:58:55;;;;;;;2.90;1.57;;;;;;;-12.00;100.00;96044.28;1040169;28;20715;-78
2023/12/04 00:59:25;;;;;;;1.20;1.13;;;;;;;-12.00;100.00;96043.47;1037624;28;20022;-75
2023/12/04 00:59:56;;;;;;;0.80;0.77;;;;;;;-12.00;100.00;96058.63;1033738;28;20034;-74
2023/12/04 01:00:26;;;;;;;3.43;1.33;;;;;;;-12.02;100.00;96050.38;1033355;28;20038;-75
2023/12/04 01:00:57;;;;;;;1.80;1.30;;;;;;;-12.07;100.00;96044.84;1037822;28;20026;-73
2023/12/04 01:01:27;;;;;;;3.13;1.93;;;;;;;-12.04;100.00;96050.47;1037619;28;20026;-75
2023/12/04 01:01:58;;;;;;;1.97;1.23;;;;;;;-12.04;100.00;96054.72;1027562;28;20053;-74
2023/12/04 01:02:28;;;;;;;1.33;1.23;;;;;;;-12.09;100.00;96046.72;1025677;28;20038;-75
2023/12/04 01:02:59;;;;;;;0.80;0.80;;;;;;;-12.04;100.00;96057.25;1030565;28;20034;-74
2023/12/04 01:03:32;;;;;;;1.30;1.17;;;;;;;-12.05;100.00;96056.47;1029414;28;20030;-76
2023/12/04 01:04:03;;;;;;;0.55;0.55;;;;;;;-12.07;100.00;96052.44;1038030;28;20452;-73
2023/12/04 01:04:34;;;;;;;1.93;1.67;;;;;;;-12.06;100.00;96054.06;1035242;28;20029;-75
2023/12/04 01:05:04;;;;;;;0.20;0.20;;;;;;;-12.07;100.00;96049.91;1039418;28;20268;-75
2023/12/04 01:05:35;;;;;;;0.20;0.20;;;;;;;-12.06;100.00;96054.88;1034459;28;20552;-76
2023/12/04 01:06:06;;;;;;;0.87;0.87;;;;;;;-12.09;100.00;96044.19;1030545;28;20286;-76
2023/12/04 01:06:36;;;;;;;0.10;0.10;;;;;;;-12.07;100.00;96048.22;1038953;28;20018;-75
2023/12/04 01:07:07;;;;;;;0.10;0.10;;;;;;;-12.08;100.00;96044.03;1038717;28;20103;-74
2023/12/04 01:07:37;;;;;;;5.63;3.23;;;;;;;-12.12;100.00;96043.47;1034752;28;20025;-74
2023/12/04 01:08:08;;;;;;;0.97;0.97;;;;;;;-12.05;100.00;96046.34;1026480;28;20027;-75
2023/12/04 01:08:38;;;;;;;1.13;1.03;;;;;;;-12.05;100.00;96048.88;1026504;28;20030;-76
2023/12/04 01:09:08;;;;;;;0.70;0.70;;;;;;;-12.05;100.00;96050.59;1030839;28;20034;-76
2023/12/04 01:09:39;;;;;;;0.10;0.10;;;;;;;-12.05;100.00;96041.28;1038722;28;20458;-74
2023/12/04 01:10:09;;;;;;;0.70;0.70;;;;;;;-12.19;100.00;96019.56;1034411;28;20026;-74
2023/12/04 01:10:40;;;;;;;2.17;2.07;;;;;;;-12.05;100.00;96045.53;1038575;28;20029;-73
2023/12/04 01:11:10;;;;;;;3.50;3.20;;;;;;;-12.08;100.00;96035.66;1034579;28;20025;-75
2023/12/04 01:11:41;;;;;;;0.30;0.30;;;;;;;-12.08;100.00;96040.72;1026618;28;20022;-76
2023/12/04 01:12:11;;;;;;;0.73;0.50;;;;;;;-12.11;100.00;96037.50;1025648;28;20031;-76
2023/12/04 01:12:42;;;;;;;0.47;0.47;;;;;;;-12.10;100.00;96043.38;1026542;28;20023;-76
2023/12/04 01:13:13;;;;;;;0.40;0.40;;;;;;;-12.10;100.00;96038.31;1027056;28;20026;-75
2023/12/04 01:13:43;;;;;;;0.57;0.57;;;;;;;-12.11;100.00;96040.00;1042606;28;20033;-75
2023/12/04 01:14:14;;;;;;;0.10;0.10;;;;;;;-12.12;100.00;96035.88;1041118;28;20374;-75
2023/12/04 01:14:44;;;;;;;1.77;1.67;;;;;;;-12.10;100.00;96038.31;1034936;28;20066;-76
2023/12/04 01:15:15;;;;;;;0.90;0.67;;;;;;;-12.13;100.00;96031.75;1038531;28;20035;-74
2023/12/04 01:15:46;;;;;;;0.63;0.63;;;;;;;-12.13;100.00;96028.44;1038600;28;20028;-76
2023/12/04 01:16:17;;;;;;;0.75;0.75;;;;;;;-12.14;100.00;96021.75;1038618;28;20417;-74
2023/12/04 01:16:47;;;;;;;0.53;0.53;;;;;;;-12.09;100.00;96032.34;1042836;28;20048;-76
2023/12/04 01:17:18;;;;;;;0.87;0.87;;;;;;;-12.09;100.00;96031.53;1030645;28;20022;-75
2023/12/04 01:17:48;;;;;;;1.37;0.97;;;;;;;-12.08;100.00;96031.41;1038669;28;20025;-76
2023/12/04 01:18:19;;;;;;;3.20;2.93;;;;;;;-12.11;100.00;96016.47;1038327;28;20029;-75
2023/12/04 01:18:49;;;;;;;1.23;1.13;;;;;;;-12.09;100.00;96027.28;1026923;28;20030;-75
2023/12/04 01:19:20;;;;;;;0.30;0.30;;;;;;;-12.13;100.00;96021.66;1028915;28;20509;-73
2023/12/04 01:19:50;;;;;;;0.57;0.57;;;;;;;-12.08;100.00;96028.06;1034730;28;20034;-75
2023/12/04 01:20:20;;;;;;;0.23;0.23;;;;;;;-12.14;100.00;96017.53;1030556;28;20092;-76
2023/12/04 01:20:51;;;;;;;0.73;0.73;;;;;;;-12.07;100.00;96022.91;1030356;28;20137;-74
2023/12/04 01:21:21;;;;;;;0.17;0.17;;;;;;;-12.06;100.00;96016.94;1026663;28;20457;-75
2023/12/04 01:21:52;;;;;;;0.50;0.50;;;;;;;-12.04;100.00;96021.84;1025882;28;20243;-74
2023/12/04 01:22:23;;;;;;;0.82;0.82;;;;;;;-12.05;100.00;96017.72;1030284;28;20101;-74
2023/12/04 01:22:53;;;;;;;0.97;0.97;;;;;;;-12.04;100.00;96016.78;1030971;28;20442;-75
2023/12/04 01:23:24;;;;;;;0.67;0.60;;;;;;;-12.06;100.00;96013.59;1034271;28;20497;-76
2023/12/04 01:23:54;;;;;;;0.23;0.23;;;;;;;-12.01;100.00;96017.38;1026467;28;20014;-75
2023/12/04 01:24:25;;;;;;;1.17;1.17;;;;;;;-11.97;100.00;96012.88;1025301;28;20019;-75
2023/12/04 01:24:55;;;;;;;0.93;0.93;;;;;;;-11.97;100.00;96012.88;1030647;28;20026;-75
2023/12/04 01:25:26;;;;;;;2.13;2.00;;;;;;;-11.98;100.00;96011.28;1034927;28;20037;-76
2023/12/04 01:25:56;;;;;;;1.60;1.50;;;;;;;-11.93;100.00;96017.59;1046625;28;20032;-74
2023/12/04 01:26:27;;;;;;;0.73;0.73;;;;;;;-11.95;100.00;96014.38;1046757;28;20028;-74
2023/12/04 01:26:57;;;;;;;2.77;2.47;;;;;;;-11.94;100.00;96013.44;1043016;28;20389;-74
2023/12/04 01:27:28;;;;;;;0.13;0.13;;;;;;;-11.93;100.00;96009.22;1038577;28;20021;-74
2023/12/04 01:27:58;;;;;;;0.20;0.20;;;;;;;-11.91;100.00;96014.94;1034310;28;20022;-74
2023/12/04 01:28:28;;;;;;;1.50;1.40;;;;;;;-11.94;100.00;96008.38;1038818;28;20073;-75
2023/12/04 01:28:59;;;;;;;1.13;1.03;;;;;;;-11.93;100.00;96012.53;1046726;28;20008;-76
2023/12/04 01:29:31;;;;;;;3.20;2.97;;;;;;;-11.92;100.00;96005.75;1038696;28;20014;-75
2023/12/04 01:30:02;;;;;;;1.90;0.88;;;;;;;-11.92;100.00;96001.50;1038310;28;20025;-74
2023/12/04 01:30:32;;;;;;;1.60;1.50;;;;;;;-11.91;100.00;96007.34;1034422;28;20014;-75
2023/12/04 01:31:03;;;;;;;1.07;1.07;;;;;;;-11.92;100.00;95998.16;1039068;28;20489;-74
2023/12/04 01:31:33;;;;;;;1.23;1.23;;;;;;;-11.93;100.00;95996.56;1042638;28;20408;-74
2023/12/04 01:32:04;;;;;;;5.23;2.13;;;;;;;-11.87;100.00;96003.66;1037932;28;20024;-76
2023/12/04 01:32:35;;;;;;;0.80;0.80;;;;;;;-11.86;100.00;95990.13;1030378;28;20542;-75
2023/12/04 01:33:05;;;;;;;0.67;0.63;;;;;;;-11.91;100.00;95989.66;1030383;28;20046;-76
2023/12/04 01:33:36;;;;;;;0.20;0.20;;;;;;;-11.86;100.00;95997.69;1042646;28;20017;-74
2023/12/04 01:34:06;;;;;;;1.80;1.70;;;;;;;-11.87;100.00;95996.06;1042731;28;20036;-76
2023/12/04 01:34:36;;;;;;;0.80;0.80;;;;;;;-11.92;100.00;95995.63;1042342;28;20218;-74
2023/12/04 01:35:07;;;;;;;0.37;0.37;;;;;;;-11.86;100.00;95999.44;1034542;28;20068;-74
2023/12/04 01:35:37;;;;;;;1.27;1.20;;;;;;;-11.85;100.00;95998.50;1030407;28;20018;-74
2023/12/04 01:36:08;;;;;;;0.70;0.70;;;;;;;-11.87;100.00;95991.00;1034364;28;20504;-75
2023/12/04 01:36:41;;;;;;;3.90;3.60;;;;;;;-11.89;100.00;95988.63;1030811;28;20050;-76
2023/12/04 01:37:12;;;;;;;0.88;0.88;;;;;;;-11.86;100.00;95992.66;1034801;28;20022;-75
2023/12/04 01:37:42;;;;;;;0.27;0.27;;;;;;;-11.89;100.00;95987.81;1030515;28;20018;-74
2023/12/04 01:38:13;;;;;;;0.73;0.73;;;;;;;-11.85;100.00;95988.38;1034728;28;20026;-75
2023/12/04 01:38:43;;;;;;;6.20;1.57;;;;;;;-11.92;100.00;95980.47;1033991;28;20080;-74
2023/12/04 01:39:14;;;;;;;0.70;0.50;;;;;;;-11.89;100.00;95982.75;1034708;28;20017;-76
2023/12/04 01:39:44;;;;;;;1.50;1.43;;;;;;;-11.88;100.00;95987.69;1042275;28;20114;-76
2023/12/04 01:40:15;;;;;;;2.87;1.37;;;;;;;-11.92;100.00;95985.53;1038621;28;20067;-76
2023/12/04 01:40:45;;;;;;;3.57;2.33;;;;;;;-11.91;100.00;95989.66;1030712;28;20100;-76
2023/12/04 01:41:16;;;;;;;0.30;0.30;;;;;;;-11.95;100.00;95980.69;1033918;28;20338;-74
2023/12/04 01:41:46;;;;;;;0.70;0.70;;;;;;;-11.96;100.00;95974.84;1030757;28;20038;-76
2023/12/04 01:42:17;;;;;;;2.23;1.47;;;;;;;-11.91;100.00;95987.13;1037808;28;20041;-74
2023/12/04 01:42:47;;;;;;;4.43;4.10;;;;;;;-11.89;100.00;95986.09;1038393;28;20033;-75
2023/12/04 01:43:18;;;;;;;0.57;0.57;;;;;;;-11.91;100.00;95977.81;1038779;28;20032;-73
2023/12/04 01:43:48;;;;;;;1.13;1.07;;;;;;;-11.92;100.00;95980.47;1034440;28;20505;-74
2023/12/04 01:44:19;;;;;;;1.30;0.73;;;;;;;-11.93;100.00;95981.41;1034512;28;20040;-76
2023/12/04 01:44:49;;;;;;;0.83;0.83;;;;;;;-11.94;100.00;95980.56;1034771;28;20056;-73
2023/12/04 01:45:20;;;;;;;0.83;0.83;;;;;;;-11.94;100.00;95987.34;1034162;28;20025;-74
2023/12/04 01:45:50;;;;;;;0.30;0.30;;;;;;;-12.01;100.00;95973.56;1034761;28;20033;-75
2023/12/04 01:46:21;;;;;;;0.53;0.53;;;;;;;-11.97;100.00;95977.47;1032802;28;20401;-75
2023/12/04 01:46:51;;;;;;;0.77;0.77;;;;;;;-12.04;100.00;95966.22;1034446;28;20513;-75
2023/12/04 01:47:22;;;;;;;0.87;0.87;;;;;;;-11.99;100.00;95982.66;1030306;28;20029;-75
2023/12/04 01:47:53;;;;;;;3.10;2.33;;;;;;;-12.03;100.00;95976.22;1030327;28;20026;-75
2023/12/04 01:48:23;;;;;;;1.53;1.43;;;;;;;-11.99;100.00;95976.81;1034429;28;20112;-76
2023/12/04 01:48:54;;;;;;;0.10;0.10;;;;;;;-11.99;100.00;95979.34;1030854;28;20113;-75
2023/12/04 01:49:24;;;;;;;0.60;0.60;;;;;;;-12.04;100.00;95968.75;1022375;29;20087;-74
2023/12/04 01:49:55;;;;;;;2.20;2.10;;;;;;;-12.03;100.00;95975.44;1032019;28;20033;-77
2023/12/04 01:50:25;;;;;;;0.97;0.97;;;;;;;-12.03;100.00;95970.38;1042639;28;20538;-76
2023/12/04 01:50:56;;;;;;;0.87;0.87;;;;;;;-12.09;100.00;95964.06;1038461;28;20024;-74
2023/12/04 01:51:26;;;;;;;10.67;3.07;;;;;;;-12.05;100.00;95965.41;1030240;28;20033;-75
2023/12/04 01:51:56;;;;;;;1.20;1.10;;;;;;;-12.04;100.00;95964.50;1034009;28;20026;-75
2023/12/04 01:52:27;;;;;;;0.73;0.73;;;;;;;-12.03;100.00;95970.38;1034739;28;20030;-76
2023/12/04 01:52:57;;;;;;;1.03;0.97;;;;;;;-12.04;100.00;95971.28;1026675;28;20078;-75
2023/12/04 01:53:28;;;;;;;0.67;0.67;;;;;;;-12.05;100.00;95964.63;1026368;28;20501;-76
2023/12/04 01:53:59;;;;;;;1.07;1.07;;;;;;;-12.08;100.00;95962.31;1038719;28;20026;-75
2023/12/04 01:54:29;;;;;;;0.43;0.43;;;;;;;-12.06;100.00;95973.94;1034454;28;20297;-76
2023/12/04 01:55:00;;;;;;;0.50;0.50;;;;;;;-12.08;100.00;95975.78;1034247;28;20406;-74
2023/12/04 01:55:30;;;;;;;0.60;0.60;;;;;;;-12.11;100.00;95968.41;1026705;28;20022;-74
2023/12/04 01:56:01;;;;;;;0.50;0.50;;;;;;;-12.11;100.00;95961.63;1026219;28;20514;-74
2023/12/04 01:56:31;;;;;;;0.57;0.57;;;;;;;-12.11;100.00;95965.88;1035343;28;20033;-75
2023/12/04 01:57:02;;;;;;;0.83;0.83;;;;;;;-12.18;100.00;95959.69;1026618;28;20518;-76
2023/12/04 01:57:33;;;;;;;1.87;1.73;;;;;;;-12.21;100.00;95954.88;1026478;28;20030;-74
2023/12/04 01:58:03;;;;;;;0.77;0.77;;;;;;;-12.21;100.00;95957.41;1026579;28;20042;-76
2023/12/04 01:58:34;;;;;;;6.87;1.53;;;;;;;-12.20;100.00;95961.56;1026279;28;20029;-75
2023/12/04 01:59:04;;;;;;;0.60;0.60;;;;;;;-12.18;100.00;95964.75;1034358;28;20076;-75
2023/12/04 01:59:34;;;;;;;0.00;0.00;;;;;;;-12.23;100.00;95955.00;1026680;28;20030;-76
2023/12/04 02:00:11;;;;;;;0.37;0.30;;;;;;;-12.18;100.00;95967.28;1026181;28;20027;-76
2023/12/04 02:00:41;;;;;;;1.88;1.45;;;;;;;-12.29;100.00;95942.81;1027047;28;20090;-76
2023/12/04 02:01:12;;;;;;;0.30;0.30;;;;;;;-12.22;100.00;95961.66;1034690;28;20104;-75
2023/12/04 02:01:42;;;;;;;1.60;1.50;;;;;;;-12.20;100.00;95961.56;1026282;28;20031;-75
2023/12/04 02:02:13;;;;;;;1.17;0.80;;;;;;;-12.20;100.00;95962.34;1027817;28;20093;-77
2023/12/04 02:02:43;;;;;;;2.13;2.00;;;;;;;-12.38;100.00;95933.41;1026404;28;20050;-76
2023/12/04 02:03:13;;;;;;;4.07;1.50;;;;;;;-12.25;100.00;95954.31;1022344;29;20028;-74
2023/12/04 02:03:44;;;;;;;0.30;0.30;;;;;;;-12.25;100.00;95959.34;1031039;28;20021;-75
2023/12/04 02:04:14;;;;;;;0.00;0.00;;;;;;;-12.23;100.00;95964.31;1038375;28;20982;-76
2023/12/04 02:04:45;;;;;;;0.63;0.63;;;;;;;-12.23;100.00;95956.72;1038477;28;20080;-76
2023/12/04 02:05:16;;;;;;;0.30;0.30;;;;;;;-12.25;100.00;95959.34;1030538;28;20046;-75
2023/12/04 02:05:47;;;;;;;0.63;0.63;;;;;;;-12.31;100.00;95944.66;1026311;28;20027;-76
2023/12/04 02:06:20;;;;;;;2.20;1.53;;;;;;;-12.23;100.00;95957.53;1030366;28;20045;-75
2023/12/04 02:06:50;;;;;;;0.28;0.28;;;;;;;-12.27;100.00;95951.09;1034498;28;20264;-75
2023/12/04 02:07:21;;;;;;;1.43;0.67;;;;;;;-12.24;100.00;95952.56;1028419;28;20098;-75
2023/12/04 02:07:51;;;;;;;0.30;0.30;;;;;;;-12.26;100.00;95960.28;1030709;28;20097;-75
2023/12/04 02:08:22;;;;;;;1.83;1.70;;;;;;;-12.26;100.00;95951.91;1034253;28;20022;-74
2023/12/04 02:08:52;;;;;;;1.17;1.17;;;;;;;-12.26;100.00;95951.91;1032632;28;20029;-75
2023/12/04 02:09:23;;;;;;;1.73;1.60;;;;;;;-12.30;100.00;95946.28;1034725;28;20072;-75
2023/12/04 02:09:53;;;;;;;0.63;0.63;;;;;;;-12.26;100.00;95957.75;1030590;28;20011;-76
2023/12/04 02:10:23;;;;;;;0.20;0.20;;;;;;;-12.28;100.00;95953.72;1034400;28;20028;-75
2023/12/04 02:10:54;;;;;;;0.30;0.30;;;;;;;-12.28;100.00;95959.59;1038428;28;20025;-75
2023/12/04 02:11:25;;;;;;;1.67;1.57;;;;;;;-12.29;100.00;95947.06;1034464;28;20030;-75
2023/12/04 02:11:55;;;;;;;0.30;0.30;;;;;;;-12.29;100.00;95952.94;1034251;28;20037;-77
2023/12/04 02:12:26;;;;;;;0.80;0.80;;;;;;;-12.32;100.00;95944.78;1034192;28;20413;-76
2023/12/04 02:12:56;;;;;;;1.40;1.30;;;;;;;-12.33;100.00;95945.72;1034439;28;20076;-75
2023/12/04 02:13:27;;;;;;;0.77;0.77;;;;;;;-12.30;100.00;95948.81;1038855;28;20281;-76
2023/12/04 02:13:58;;;;;;;5.83;2.20;;;;;;;-12.27;100.00;95955.34;1022151;28;20503;-73
2023/12/04 02:14:28;;;;;;;1.03;0.73;;;;;;;-12.29;100.00;95950.41;1030734;28;20018;-76
2023/12/04 02:14:59;;;;;;;2.90;1.13;;;;;;;-12.29;100.00;95950.41;1026409;28;20022;-75
2023/12/04 02:15:29;;;;;;;1.40;1.30;;;;;;;-12.28;100.00;95954.53;1038632;28;20064;-74
2023/12/04 02:16:02;;;;;;;0.53;0.53;;;;;;;-12.30;100.00;95951.34;1030405;28;20022;-75
2023/12/04 02:16:36;;;;;;;0.63;0.63;;;;;;;-12.28;100.00;95952.00;1038409;28;20030;-75
2023/12/04 02:17:07;;;;;;;1.15;1.15;;;;;;;-12.31;100.00;95947.19;1034433;28;20022;-75
2023/12/04 02:17:37;;;;;;;0.43;0.43;;;;;;;-12.29;100.00;95947.88;1022526;28;20027;-76
2023/12/04 02:18:08;;;;;;;0.60;0.57;;;;;;;-12.27;100.00;95951.09;1034402;28;20022;-75
2023/12/04 02:18:38;;;;;;;0.33;0.33;;;;;;;-12.31;100.00;95934.53;1038568;28;20028;-74
2023/12/04 02:19:11;;;;;;;0.50;0.50;;;;;;;-12.31;100.00;95944.66;1029129;28;20042;-75
2023/12/04 02:19:42;;;;;;;0.57;0.57;;;;;;;-12.31;100.00;95943.84;1026255;28;20034;-76
2023/12/04 02:20:14;;;;;;;2.40;2.28;;;;;;;-12.33;100.00;95935.59;1030669;28;20138;-75
2023/12/04 02:20:44;;;;;;;0.20;0.20;;;;;;;-12.33;100.00;95938.94;1030480;28;20014;-75